sensor_id;sensor_type;location;lat;lon;timestamp;P1;durP1;ratioP1;P2;durP2;ratioP2
58354;SDS011;44160;49.080;19.302;2022-08-19T00:00:34;7.40;;;6.63;;
58354;SDS011;44160;49.080;19.302;2022-08-19T00:03:00;9.98;;;6.53;;
58354;SDS011;44160;49.080;19.302;2022-08-19T00:05:26;11.60;;;6.63;;
58354;SDS011;44160;49.080;19.302;2022-08-19T00:07:52;7.50;;;6.00;;
58354;SDS011;44160;49.080;19.302;2022-08-19T00:10:18;9.30;;;6.95;;
58354;SDS011;44160;49.080;19.302;2022-08-19T00:12:45;6.93;;;6.10;;
58354;SDS011;44160;49.080;19.302;2022-08-19T00:15:12;7.30;;;6.53;;
58354;SDS011;44160;49.080;19.302;2022-08-19T00:17:39;7.80;;;6.82;;
58354;SDS011;44160;49.080;19.302;2022-08-19T00:20:05;7.93;;;6.03;;
58354;SDS011;44160;49.080;19.302;2022-08-19T00:22:32;11.88;;;5.95;;
58354;SDS011;44160;49.080;19.302;2022-08-19T00:24:58;8.05;;;6.63;;
58354;SDS011;44160;49.080;19.302;2022-08-19T00:27:24;10.63;;;6.88;;
58354;SDS011;44160;49.080;19.302;2022-08-19T00:29:50;7.07;;;6.38;;
58354;SDS011;44160;49.080;19.302;2022-08-19T00:32:16;8.35;;;7.07;;
58354;SDS011;44160;49.080;19.302;2022-08-19T00:34:42;7.97;;;7.03;;
58354;SDS011;44160;49.080;19.302;2022-08-19T00:37:08;10.73;;;6.80;;
58354;SDS011;44160;49.080;19.302;2022-08-19T00:39:35;9.88;;;7.30;;
58354;SDS011;44160;49.080;19.302;2022-08-19T00:42:01;9.23;;;6.55;;
58354;SDS011;44160;49.080;19.302;2022-08-19T00:44:28;9.40;;;7.30;;
58354;SDS011;44160;49.080;19.302;2022-08-19T00:46:56;10.50;;;6.10;;
58354;SDS011;44160;49.080;19.302;2022-08-19T00:51:55;8.43;;;7.55;;
58354;SDS011;44160;49.080;19.302;2022-08-19T00:54:23;9.73;;;6.72;;
58354;SDS011;44160;49.080;19.302;2022-08-19T00:56:49;7.43;;;6.63;;
58354;SDS011;44160;49.080;19.302;2022-08-19T00:59:16;16.02;;;7.13;;
58354;SDS011;44160;49.080;19.302;2022-08-19T01:01:43;10.20;;;7.95;;
58354;SDS011;44160;49.080;19.302;2022-08-19T01:04:09;9.00;;;7.32;;
58354;SDS011;44160;49.080;19.302;2022-08-19T01:06:36;8.02;;;6.63;;
58354;SDS011;44160;49.080;19.302;2022-08-19T01:09:03;11.18;;;7.85;;
58354;SDS011;44160;49.080;19.302;2022-08-19T01:11:30;8.23;;;6.68;;
58354;SDS011;44160;49.080;19.302;2022-08-19T01:13:57;7.97;;;7.15;;
58354;SDS011;44160;49.080;19.302;2022-08-19T01:16:24;9.20;;;7.65;;
58354;SDS011;44160;49.080;19.302;2022-08-19T01:18:51;8.05;;;6.72;;
58354;SDS011;44160;49.080;19.302;2022-08-19T01:21:22;11.30;;;7.65;;
58354;SDS011;44160;49.080;19.302;2022-08-19T01:23:49;8.50;;;7.32;;
58354;SDS011;44160;49.080;19.302;2022-08-19T01:26:17;8.90;;;7.32;;
58354;SDS011;44160;49.080;19.302;2022-08-19T01:28:44;8.60;;;6.90;;
58354;SDS011;44160;49.080;19.302;2022-08-19T01:31:16;12.45;;;7.72;;
58354;SDS011;44160;49.080;19.302;2022-08-19T01:33:43;9.20;;;7.22;;
58354;SDS011;44160;49.080;19.302;2022-08-19T01:36:13;8.93;;;6.90;;
58354;SDS011;44160;49.080;19.302;2022-08-19T01:38:40;10.10;;;8.05;;
58354;SDS011;44160;49.080;19.302;2022-08-19T01:41:07;11.75;;;8.43;;
58354;SDS011;44160;49.080;19.302;2022-08-19T01:43:33;13.82;;;7.05;;
58354;SDS011;44160;49.080;19.302;2022-08-19T01:46:00;10.50;;;8.25;;
58354;SDS011;44160;49.080;19.302;2022-08-19T01:48:26;8.82;;;7.05;;
58354;SDS011;44160;49.080;19.302;2022-08-19T01:50:55;8.80;;;7.90;;
58354;SDS011;44160;49.080;19.302;2022-08-19T01:53:21;8.80;;;7.22;;
58354;SDS011;44160;49.080;19.302;2022-08-19T01:55:47;9.20;;;7.63;;
58354;SDS011;44160;49.080;19.302;2022-08-19T01:58:18;10.18;;;8.00;;
58354;SDS011;44160;49.080;19.302;2022-08-19T02:00:45;9.15;;;7.28;;
58354;SDS011;44160;49.080;19.302;2022-08-19T02:03:11;8.13;;;7.25;;
58354;SDS011;44160;49.080;19.302;2022-08-19T02:05:38;11.38;;;7.60;;
58354;SDS011;44160;49.080;19.302;2022-08-19T02:08:04;8.98;;;7.32;;
58354;SDS011;44160;49.080;19.302;2022-08-19T02:10:30;11.07;;;8.30;;
58354;SDS011;44160;49.080;19.302;2022-08-19T02:12:57;9.65;;;7.63;;
58354;SDS011;44160;49.080;19.302;2022-08-19T02:15:23;10.30;;;8.10;;
58354;SDS011;44160;49.080;19.302;2022-08-19T02:17:50;8.80;;;7.90;;
58354;SDS011;44160;49.080;19.302;2022-08-19T02:20:16;9.75;;;8.73;;
58354;SDS011;44160;49.080;19.302;2022-08-19T02:22:43;12.40;;;9.30;;
58354;SDS011;44160;49.080;19.302;2022-08-19T02:25:11;13.10;;;9.85;;
58354;SDS011;44160;49.080;19.302;2022-08-19T02:27:37;9.60;;;8.52;;
58354;SDS011;44160;49.080;19.302;2022-08-19T02:30:09;13.32;;;9.70;;
58354;SDS011;44160;49.080;19.302;2022-08-19T02:32:36;11.43;;;8.80;;
58354;SDS011;44160;49.080;19.302;2022-08-19T02:35:02;11.48;;;8.70;;
58354;SDS011;44160;49.080;19.302;2022-08-19T02:37:28;11.13;;;9.35;;
58354;SDS011;44160;49.080;19.302;2022-08-19T02:40:12;10.57;;;9.00;;
58354;SDS011;44160;49.080;19.302;2022-08-19T02:42:38;12.50;;;9.20;;
58354;SDS011;44160;49.080;19.302;2022-08-19T02:45:06;12.88;;;8.38;;
58354;SDS011;44160;49.080;19.302;2022-08-19T02:47:32;12.18;;;8.70;;
58354;SDS011;44160;49.080;19.302;2022-08-19T02:50:00;10.63;;;7.75;;
58354;SDS011;44160;49.080;19.302;2022-08-19T02:52:26;10.18;;;8.13;;
58354;SDS011;44160;49.080;19.302;2022-08-19T02:54:53;10.82;;;8.57;;
58354;SDS011;44160;49.080;19.302;2022-08-19T02:57:20;8.93;;;7.78;;
58354;SDS011;44160;49.080;19.302;2022-08-19T02:59:47;11.10;;;8.75;;
58354;SDS011;44160;49.080;19.302;2022-08-19T03:02:13;13.73;;;9.30;;
58354;SDS011;44160;49.080;19.302;2022-08-19T03:04:40;12.10;;;10.23;;
58354;SDS011;44160;49.080;19.302;2022-08-19T03:07:07;13.63;;;9.65;;
58354;SDS011;44160;49.080;19.302;2022-08-19T03:09:35;12.50;;;9.82;;
58354;SDS011;44160;49.080;19.302;2022-08-19T03:12:02;12.23;;;9.23;;
58354;SDS011;44160;49.080;19.302;2022-08-19T03:14:30;13.27;;;9.68;;
58354;SDS011;44160;49.080;19.302;2022-08-19T03:16:56;16.52;;;9.80;;
58354;SDS011;44160;49.080;19.302;2022-08-19T03:19:22;12.07;;;9.75;;
58354;SDS011;44160;49.080;19.302;2022-08-19T03:21:48;12.48;;;9.85;;
58354;SDS011;44160;49.080;19.302;2022-08-19T03:24:15;11.32;;;9.85;;
58354;SDS011;44160;49.080;19.302;2022-08-19T03:26:44;12.60;;;9.93;;
58354;SDS011;44160;49.080;19.302;2022-08-19T03:29:10;11.55;;;10.32;;
58354;SDS011;44160;49.080;19.302;2022-08-19T03:31:37;10.35;;;9.15;;
58354;SDS011;44160;49.080;19.302;2022-08-19T03:34:03;12.57;;;10.55;;
58354;SDS011;44160;49.080;19.302;2022-08-19T03:36:29;11.45;;;10.23;;
58354;SDS011;44160;49.080;19.302;2022-08-19T03:38:58;11.82;;;9.40;;
58354;SDS011;44160;49.080;19.302;2022-08-19T03:41:27;11.93;;;8.88;;
58354;SDS011;44160;49.080;19.302;2022-08-19T03:43:53;13.00;;;10.23;;
58354;SDS011;44160;49.080;19.302;2022-08-19T03:46:23;10.77;;;9.68;;
58354;SDS011;44160;49.080;19.302;2022-08-19T03:48:50;14.88;;;10.00;;
58354;SDS011;44160;49.080;19.302;2022-08-19T03:51:37;12.13;;;10.20;;
58354;SDS011;44160;49.080;19.302;2022-08-19T03:54:05;15.98;;;11.00;;
58354;SDS011;44160;49.080;19.302;2022-08-19T03:56:33;12.70;;;10.35;;
58354;SDS011;44160;49.080;19.302;2022-08-19T03:58:59;12.90;;;11.15;;
58354;SDS011;44160;49.080;19.302;2022-08-19T04:01:26;16.10;;;11.50;;
58354;SDS011;44160;49.080;19.302;2022-08-19T04:03:52;14.50;;;11.40;;
58354;SDS011;44160;49.080;19.302;2022-08-19T04:06:21;16.52;;;11.80;;
58354;SDS011;44160;49.080;19.302;2022-08-19T04:08:48;15.45;;;10.50;;
58354;SDS011;44160;49.080;19.302;2022-08-19T04:11:16;12.40;;;10.20;;
58354;SDS011;44160;49.080;19.302;2022-08-19T04:13:42;13.73;;;11.35;;
58354;SDS011;44160;49.080;19.302;2022-08-19T04:16:09;16.45;;;10.63;;
58354;SDS011;44160;49.080;19.302;2022-08-19T04:18:37;12.25;;;9.85;;
58354;SDS011;44160;49.080;19.302;2022-08-19T04:21:03;43.30;;;14.30;;
58354;SDS011;44160;49.080;19.302;2022-08-19T04:23:30;14.18;;;10.48;;
58354;SDS011;44160;49.080;19.302;2022-08-19T04:25:56;18.48;;;12.82;;
58354;SDS011;44160;49.080;19.302;2022-08-19T04:28:22;16.13;;;11.02;;
58354;SDS011;44160;49.080;19.302;2022-08-19T04:30:49;14.75;;;10.35;;
58354;SDS011;44160;49.080;19.302;2022-08-19T04:33:16;14.27;;;11.20;;
58354;SDS011;44160;49.080;19.302;2022-08-19T04:35:44;18.48;;;12.43;;
58354;SDS011;44160;49.080;19.302;2022-08-19T04:38:12;23.02;;;12.20;;
58354;SDS011;44160;49.080;19.302;2022-08-19T04:40:42;16.27;;;12.50;;
58354;SDS011;44160;49.080;19.302;2022-08-19T04:43:27;19.30;;;10.73;;
58354;SDS011;44160;49.080;19.302;2022-08-19T04:45:53;20.92;;;10.63;;
58354;SDS011;44160;49.080;19.302;2022-08-19T04:48:19;12.32;;;10.38;;
58354;SDS011;44160;49.080;19.302;2022-08-19T04:50:50;11.52;;;10.15;;
58354;SDS011;44160;49.080;19.302;2022-08-19T04:53:21;17.50;;;10.82;;
58354;SDS011;44160;49.080;19.302;2022-08-19T04:55:47;18.10;;;10.57;;
58354;SDS011;44160;49.080;19.302;2022-08-19T04:58:14;15.85;;;10.88;;
58354;SDS011;44160;49.080;19.302;2022-08-19T05:00:43;17.63;;;10.48;;
58354;SDS011;44160;49.080;19.302;2022-08-19T05:03:09;19.83;;;11.20;;
58354;SDS011;44160;49.080;19.302;2022-08-19T05:05:40;14.30;;;10.05;;
58354;SDS011;44160;49.080;19.302;2022-08-19T05:08:06;14.68;;;9.55;;
58354;SDS011;44160;49.080;19.302;2022-08-19T05:10:36;20.27;;;11.65;;
58354;SDS011;44160;49.080;19.302;2022-08-19T05:13:03;15.20;;;9.80;;
58354;SDS011;44160;49.080;19.302;2022-08-19T05:15:29;11.48;;;9.38;;
58354;SDS011;44160;49.080;19.302;2022-08-19T05:17:55;10.50;;;9.40;;
58354;SDS011;44160;49.080;19.302;2022-08-19T05:20:40;15.07;;;10.63;;
58354;SDS011;44160;49.080;19.302;2022-08-19T05:23:25;15.93;;;11.30;;
58354;SDS011;44160;49.080;19.302;2022-08-19T05:25:51;20.42;;;11.98;;
58354;SDS011;44160;49.080;19.302;2022-08-19T05:28:18;14.55;;;10.35;;
58354;SDS011;44160;49.080;19.302;2022-08-19T05:30:45;18.63;;;10.07;;
58354;SDS011;44160;49.080;19.302;2022-08-19T05:33:11;12.15;;;10.20;;
58354;SDS011;44160;49.080;19.302;2022-08-19T05:35:38;16.42;;;10.93;;
58354;SDS011;44160;49.080;19.302;2022-08-19T05:38:05;15.90;;;10.70;;
58354;SDS011;44160;49.080;19.302;2022-08-19T05:40:33;20.17;;;11.93;;
58354;SDS011;44160;49.080;19.302;2022-08-19T05:43:01;19.15;;;11.25;;
58354;SDS011;44160;49.080;19.302;2022-08-19T05:45:27;12.80;;;9.57;;
58354;SDS011;44160;49.080;19.302;2022-08-19T05:47:53;16.48;;;9.90;;
58354;SDS011;44160;49.080;19.302;2022-08-19T05:50:19;13.55;;;10.50;;
58354;SDS011;44160;49.080;19.302;2022-08-19T05:52:45;15.43;;;9.68;;
58354;SDS011;44160;49.080;19.302;2022-08-19T05:55:11;14.90;;;10.50;;
58354;SDS011;44160;49.080;19.302;2022-08-19T05:57:38;11.52;;;9.65;;
58354;SDS011;44160;49.080;19.302;2022-08-19T06:00:04;14.52;;;9.65;;
58354;SDS011;44160;49.080;19.302;2022-08-19T06:02:35;11.60;;;9.85;;
58354;SDS011;44160;49.080;19.302;2022-08-19T06:05:01;16.00;;;10.60;;
58354;SDS011;44160;49.080;19.302;2022-08-19T06:07:28;16.00;;;10.20;;
58354;SDS011;44160;49.080;19.302;2022-08-19T06:09:55;15.90;;;9.85;;
58354;SDS011;44160;49.080;19.302;2022-08-19T06:12:21;17.33;;;9.85;;
58354;SDS011;44160;49.080;19.302;2022-08-19T06:14:53;14.02;;;9.85;;
58354;SDS011;44160;49.080;19.302;2022-08-19T06:17:19;15.15;;;10.18;;
58354;SDS011;44160;49.080;19.302;2022-08-19T06:19:47;13.32;;;9.48;;
58354;SDS011;44160;49.080;19.302;2022-08-19T06:22:14;13.35;;;9.57;;
58354;SDS011;44160;49.080;19.302;2022-08-19T06:24:41;12.43;;;9.43;;
58354;SDS011;44160;49.080;19.302;2022-08-19T06:27:07;16.83;;;11.48;;
58354;SDS011;44160;49.080;19.302;2022-08-19T06:29:33;14.65;;;9.23;;
58354;SDS011;44160;49.080;19.302;2022-08-19T06:32:00;14.95;;;8.57;;
58354;SDS011;44160;49.080;19.302;2022-08-19T06:34:27;10.30;;;8.40;;
58354;SDS011;44160;49.080;19.302;2022-08-19T06:36:54;14.43;;;8.88;;
58354;SDS011;44160;49.080;19.302;2022-08-19T06:39:24;8.98;;;8.07;;
58354;SDS011;44160;49.080;19.302;2022-08-19T06:41:53;10.13;;;7.95;;
58354;SDS011;44160;49.080;19.302;2022-08-19T06:44:20;12.68;;;8.10;;
58354;SDS011;44160;49.080;19.302;2022-08-19T06:46:46;9.85;;;8.82;;
58354;SDS011;44160;49.080;19.302;2022-08-19T06:49:13;9.88;;;8.48;;
58354;SDS011;44160;49.080;19.302;2022-08-19T06:51:43;10.52;;;8.27;;
58354;SDS011;44160;49.080;19.302;2022-08-19T06:54:12;11.63;;;8.13;;
58354;SDS011;44160;49.080;19.302;2022-08-19T06:56:39;16.27;;;8.50;;
58354;SDS011;44160;49.080;19.302;2022-08-19T06:59:06;9.60;;;8.05;;
58354;SDS011;44160;49.080;19.302;2022-08-19T07:01:36;13.30;;;8.85;;
58354;SDS011;44160;49.080;19.302;2022-08-19T07:06:29;9.32;;;7.68;;
58354;SDS011;44160;49.080;19.302;2022-08-19T07:08:56;9.68;;;8.32;;
58354;SDS011;44160;49.080;19.302;2022-08-19T07:11:23;11.98;;;8.57;;
58354;SDS011;44160;49.080;19.302;2022-08-19T07:13:49;13.35;;;8.02;;
58354;SDS011;44160;49.080;19.302;2022-08-19T07:16:16;12.98;;;8.07;;
58354;SDS011;44160;49.080;19.302;2022-08-19T07:18:44;11.25;;;8.27;;
58354;SDS011;44160;49.080;19.302;2022-08-19T07:21:12;9.48;;;7.95;;
58354;SDS011;44160;49.080;19.302;2022-08-19T07:23:38;12.60;;;8.55;;
58354;SDS011;44160;49.080;19.302;2022-08-19T07:26:08;10.52;;;8.57;;
58354;SDS011;44160;49.080;19.302;2022-08-19T07:28:35;10.10;;;8.43;;
58354;SDS011;44160;49.080;19.302;2022-08-19T07:31:04;10.88;;;8.95;;
58354;SDS011;44160;49.080;19.302;2022-08-19T07:33:31;9.10;;;8.15;;
58354;SDS011;44160;49.080;19.302;2022-08-19T07:35:57;17.98;;;9.00;;
58354;SDS011;44160;49.080;19.302;2022-08-19T07:38:24;16.13;;;8.85;;
58354;SDS011;44160;49.080;19.302;2022-08-19T07:40:50;9.60;;;8.30;;
58354;SDS011;44160;49.080;19.302;2022-08-19T07:43:17;13.95;;;7.82;;
58354;SDS011;44160;49.080;19.302;2022-08-19T07:45:47;11.25;;;9.15;;
58354;SDS011;44160;49.080;19.302;2022-08-19T07:48:14;13.15;;;8.50;;
58354;SDS011;44160;49.080;19.302;2022-08-19T07:50:40;14.00;;;9.05;;
58354;SDS011;44160;49.080;19.302;2022-08-19T07:53:06;12.35;;;8.45;;
58354;SDS011;44160;49.080;19.302;2022-08-19T07:55:32;15.20;;;8.88;;
58354;SDS011;44160;49.080;19.302;2022-08-19T07:57:59;13.32;;;8.23;;
58354;SDS011;44160;49.080;19.302;2022-08-19T08:00:25;9.48;;;7.82;;
58354;SDS011;44160;49.080;19.302;2022-08-19T08:02:54;12.75;;;8.52;;
58354;SDS011;44160;49.080;19.302;2022-08-19T08:05:20;9.27;;;7.65;;
58354;SDS011;44160;49.080;19.302;2022-08-19T08:08:04;11.80;;;7.32;;
58354;SDS011;44160;49.080;19.302;2022-08-19T08:11:06;9.93;;;7.00;;
58354;SDS011;44160;49.080;19.302;2022-08-19T08:13:32;7.97;;;6.47;;
58354;SDS011;44160;49.080;19.302;2022-08-19T08:16:00;10.20;;;6.82;;
58354;SDS011;44160;49.080;19.302;2022-08-19T08:18:26;10.95;;;6.68;;
58354;SDS011;44160;49.080;19.302;2022-08-19T08:20:52;13.07;;;7.43;;
58354;SDS011;44160;49.080;19.302;2022-08-19T08:23:18;8.68;;;6.85;;
58354;SDS011;44160;49.080;19.302;2022-08-19T08:25:47;10.10;;;6.55;;
58354;SDS011;44160;49.080;19.302;2022-08-19T08:28:13;9.40;;;6.45;;
58354;SDS011;44160;49.080;19.302;2022-08-19T08:30:40;7.22;;;6.05;;
58354;SDS011;44160;49.080;19.302;2022-08-19T08:33:08;8.18;;;5.85;;
58354;SDS011;44160;49.080;19.302;2022-08-19T08:35:34;7.18;;;5.50;;
58354;SDS011;44160;49.080;19.302;2022-08-19T08:38:00;9.27;;;7.00;;
58354;SDS011;44160;49.080;19.302;2022-08-19T08:45:59;10.15;;;6.20;;
58354;SDS011;44160;49.080;19.302;2022-08-19T08:51:32;13.75;;;5.38;;
58354;SDS011;44160;49.080;19.302;2022-08-19T08:53:59;9.75;;;5.32;;
58354;SDS011;44160;49.080;19.302;2022-08-19T08:56:25;8.07;;;5.82;;
58354;SDS011;44160;49.080;19.302;2022-08-19T09:01:18;9.13;;;5.53;;
58354;SDS011;44160;49.080;19.302;2022-08-19T09:03:45;7.07;;;6.38;;
58354;SDS011;44160;49.080;19.302;2022-08-19T09:08:47;8.07;;;5.82;;
58354;SDS011;44160;49.080;19.302;2022-08-19T09:11:18;13.38;;;6.32;;
58354;SDS011;44160;49.080;19.302;2022-08-19T09:16:26;7.45;;;6.38;;
58354;SDS011;44160;49.080;19.302;2022-08-19T09:18:55;14.02;;;6.13;;
58354;SDS011;44160;49.080;19.302;2022-08-19T09:21:23;11.18;;;6.10;;
58354;SDS011;44160;49.080;19.302;2022-08-19T09:23:50;8.13;;;6.28;;
58354;SDS011;44160;49.080;19.302;2022-08-19T09:26:17;7.78;;;5.47;;
58354;SDS011;44160;49.080;19.302;2022-08-19T09:28:45;7.07;;;5.72;;
58354;SDS011;44160;49.080;19.302;2022-08-19T09:31:16;6.78;;;5.93;;
58354;SDS011;44160;49.080;19.302;2022-08-19T09:33:42;7.72;;;6.50;;
58354;SDS011;44160;49.080;19.302;2022-08-19T09:36:09;9.50;;;5.78;;
58354;SDS011;44160;49.080;19.302;2022-08-19T09:38:36;8.02;;;6.25;;
58354;SDS011;44160;49.080;19.302;2022-08-19T09:41:06;10.27;;;6.63;;
58354;SDS011;44160;49.080;19.302;2022-08-19T09:43:32;9.93;;;6.68;;
58354;SDS011;44160;49.080;19.302;2022-08-19T09:46:04;10.47;;;5.63;;
58354;SDS011;44160;49.080;19.302;2022-08-19T09:48:32;9.00;;;6.60;;
58354;SDS011;44160;49.080;19.302;2022-08-19T09:51:02;6.20;;;5.25;;
58354;SDS011;44160;49.080;19.302;2022-08-19T09:53:28;9.15;;;4.88;;
58354;SDS011;44160;49.080;19.302;2022-08-19T09:55:55;5.60;;;5.00;;
58354;SDS011;44160;49.080;19.302;2022-08-19T09:58:21;8.48;;;5.43;;
58354;SDS011;44160;49.080;19.302;2022-08-19T10:00:52;7.82;;;4.53;;
58354;SDS011;44160;49.080;19.302;2022-08-19T10:03:18;10.38;;;5.05;;
58354;SDS011;44160;49.080;19.302;2022-08-19T10:05:44;5.28;;;4.78;;
58354;SDS011;44160;49.080;19.302;2022-08-19T10:08:13;6.75;;;5.38;;
58354;SDS011;44160;49.080;19.302;2022-08-19T10:10:43;5.72;;;5.07;;
58354;SDS011;44160;49.080;19.302;2022-08-19T10:13:09;6.90;;;4.63;;
58354;SDS011;44160;49.080;19.302;2022-08-19T10:15:35;5.80;;;4.28;;
58354;SDS011;44160;49.080;19.302;2022-08-19T10:18:04;11.55;;;5.32;;
58354;SDS011;44160;49.080;19.302;2022-08-19T10:20:30;7.03;;;4.95;;
58354;SDS011;44160;49.080;19.302;2022-08-19T10:22:57;7.65;;;4.60;;
58354;SDS011;44160;49.080;19.302;2022-08-19T10:25:24;6.47;;;4.35;;
58354;SDS011;44160;49.080;19.302;2022-08-19T10:27:51;6.70;;;4.10;;
58354;SDS011;44160;49.080;19.302;2022-08-19T10:30:18;5.05;;;4.28;;
58354;SDS011;44160;49.080;19.302;2022-08-19T10:32:44;7.88;;;4.30;;
58354;SDS011;44160;49.080;19.302;2022-08-19T10:35:11;7.30;;;4.10;;
58354;SDS011;44160;49.080;19.302;2022-08-19T10:37:37;8.90;;;4.63;;
58354;SDS011;44160;49.080;19.302;2022-08-19T10:40:07;9.25;;;4.05;;
58354;SDS011;44160;49.080;19.302;2022-08-19T10:42:34;3.85;;;3.10;;
58354;SDS011;44160;49.080;19.302;2022-08-19T10:45:01;7.45;;;3.60;;
58354;SDS011;44160;49.080;19.302;2022-08-19T10:47:27;8.68;;;4.28;;
58354;SDS011;44160;49.080;19.302;2022-08-19T10:49:54;5.50;;;3.80;;
58354;SDS011;44160;49.080;19.302;2022-08-19T10:52:40;8.55;;;4.45;;
58354;SDS011;44160;49.080;19.302;2022-08-19T10:55:07;7.18;;;3.80;;
58354;SDS011;44160;49.080;19.302;2022-08-19T10:57:52;7.60;;;3.65;;
58354;SDS011;44160;49.080;19.302;2022-08-19T11:00:18;8.80;;;4.22;;
58354;SDS011;44160;49.080;19.302;2022-08-19T11:02:45;6.22;;;3.83;;
58354;SDS011;44160;49.080;19.302;2022-08-19T11:05:11;6.15;;;3.63;;
58354;SDS011;44160;49.080;19.302;2022-08-19T11:07:38;7.90;;;3.70;;
58354;SDS011;44160;49.080;19.302;2022-08-19T11:10:05;8.27;;;3.50;;
58354;SDS011;44160;49.080;19.302;2022-08-19T11:12:31;8.70;;;3.92;;
58354;SDS011;44160;49.080;19.302;2022-08-19T11:15:00;5.30;;;3.78;;
58354;SDS011;44160;49.080;19.302;2022-08-19T11:17:27;7.97;;;3.30;;
58354;SDS011;44160;49.080;19.302;2022-08-19T11:19:53;7.22;;;3.50;;
58354;SDS011;44160;49.080;19.302;2022-08-19T11:22:19;7.50;;;4.03;;
58354;SDS011;44160;49.080;19.302;2022-08-19T11:24:45;7.75;;;3.65;;
58354;SDS011;44160;49.080;19.302;2022-08-19T11:27:11;7.35;;;4.13;;
58354;SDS011;44160;49.080;19.302;2022-08-19T11:29:38;8.32;;;4.05;;
58354;SDS011;44160;49.080;19.302;2022-08-19T11:32:05;5.43;;;3.63;;
58354;SDS011;44160;49.080;19.302;2022-08-19T11:34:32;11.45;;;3.95;;
58354;SDS011;44160;49.080;19.302;2022-08-19T11:36:58;5.20;;;3.60;;
58354;SDS011;44160;49.080;19.302;2022-08-19T11:39:25;5.25;;;3.42;;
58354;SDS011;44160;49.080;19.302;2022-08-19T11:41:52;11.27;;;5.07;;
58354;SDS011;44160;49.080;19.302;2022-08-19T11:44:18;6.28;;;4.00;;
58354;SDS011;44160;49.080;19.302;2022-08-19T11:46:44;6.80;;;3.97;;
58354;SDS011;44160;49.080;19.302;2022-08-19T11:49:11;6.60;;;3.40;;
58354;SDS011;44160;49.080;19.302;2022-08-19T11:51:37;7.15;;;3.97;;
58354;SDS011;44160;49.080;19.302;2022-08-19T11:54:04;12.23;;;3.92;;
58354;SDS011;44160;49.080;19.302;2022-08-19T11:56:31;8.25;;;4.03;;
58354;SDS011;44160;49.080;19.302;2022-08-19T11:58:57;10.07;;;3.78;;
58354;SDS011;44160;49.080;19.302;2022-08-19T12:01:24;9.05;;;4.43;;
58354;SDS011;44160;49.080;19.302;2022-08-19T12:03:51;8.93;;;3.80;;
58354;SDS011;44160;49.080;19.302;2022-08-19T12:06:19;7.35;;;4.40;;
58354;SDS011;44160;49.080;19.302;2022-08-19T12:08:48;9.05;;;4.18;;
58354;SDS011;44160;49.080;19.302;2022-08-19T12:11:15;9.55;;;4.85;;
58354;SDS011;44160;49.080;19.302;2022-08-19T12:13:41;10.63;;;4.38;;
58354;SDS011;44160;49.080;19.302;2022-08-19T12:16:11;11.18;;;4.05;;
58354;SDS011;44160;49.080;19.302;2022-08-19T12:18:38;11.43;;;4.43;;
58354;SDS011;44160;49.080;19.302;2022-08-19T12:21:07;8.40;;;4.22;;
58354;SDS011;44160;49.080;19.302;2022-08-19T12:23:35;6.47;;;3.75;;
58354;SDS011;44160;49.080;19.302;2022-08-19T12:26:02;9.38;;;4.38;;
58354;SDS011;44160;49.080;19.302;2022-08-19T12:28:28;6.50;;;4.30;;
58354;SDS011;44160;49.080;19.302;2022-08-19T12:30:55;7.00;;;4.18;;
58354;SDS011;44160;49.080;19.302;2022-08-19T12:33:21;7.72;;;4.30;;
58354;SDS011;44160;49.080;19.302;2022-08-19T12:35:50;10.00;;;4.40;;
58354;SDS011;44160;49.080;19.302;2022-08-19T12:38:17;6.75;;;4.18;;
58354;SDS011;44160;49.080;19.302;2022-08-19T12:40:46;6.22;;;4.20;;
58354;SDS011;44160;49.080;19.302;2022-08-19T12:43:13;9.43;;;4.35;;
58354;SDS011;44160;49.080;19.302;2022-08-19T12:45:40;7.20;;;4.57;;
58354;SDS011;44160;49.080;19.302;2022-08-19T12:48:07;8.10;;;4.32;;
58354;SDS011;44160;49.080;19.302;2022-08-19T12:50:33;9.13;;;4.82;;
58354;SDS011;44160;49.080;19.302;2022-08-19T12:52:59;5.00;;;4.00;;
58354;SDS011;44160;49.080;19.302;2022-08-19T12:55:25;13.13;;;4.38;;
58354;SDS011;44160;49.080;19.302;2022-08-19T12:57:54;16.05;;;4.40;;
58354;SDS011;44160;49.080;19.302;2022-08-19T13:00:21;7.00;;;4.38;;
58354;SDS011;44160;49.080;19.302;2022-08-19T13:02:49;7.32;;;4.70;;
58354;SDS011;44160;49.080;19.302;2022-08-19T13:05:20;8.07;;;4.80;;
58354;SDS011;44160;49.080;19.302;2022-08-19T13:07:48;8.15;;;5.10;;
58354;SDS011;44160;49.080;19.302;2022-08-19T13:10:15;5.88;;;4.32;;
58354;SDS011;44160;49.080;19.302;2022-08-19T13:12:42;8.07;;;4.57;;
58354;SDS011;44160;49.080;19.302;2022-08-19T13:15:08;14.88;;;4.63;;
58354;SDS011;44160;49.080;19.302;2022-08-19T13:17:35;12.70;;;4.13;;
58354;SDS011;44160;49.080;19.302;2022-08-19T13:20:02;6.75;;;4.30;;
58354;SDS011;44160;49.080;19.302;2022-08-19T13:22:29;8.93;;;4.15;;
58354;SDS011;44160;49.080;19.302;2022-08-19T13:24:55;9.40;;;4.40;;
58354;SDS011;44160;49.080;19.302;2022-08-19T13:27:21;8.98;;;4.50;;
58354;SDS011;44160;49.080;19.302;2022-08-19T13:29:47;9.07;;;4.80;;
58354;SDS011;44160;49.080;19.302;2022-08-19T13:32:31;10.82;;;4.22;;
58354;SDS011;44160;49.080;19.302;2022-08-19T13:35:16;12.75;;;3.90;;
58354;SDS011;44160;49.080;19.302;2022-08-19T13:37:42;6.82;;;4.40;;
58354;SDS011;44160;49.080;19.302;2022-08-19T13:42:38;9.13;;;3.97;;
58354;SDS011;44160;49.080;19.302;2022-08-19T13:45:04;7.25;;;4.38;;
58354;SDS011;44160;49.080;19.302;2022-08-19T13:47:31;7.65;;;4.47;;
58354;SDS011;44160;49.080;19.302;2022-08-19T13:49:59;17.65;;;6.65;;
58354;SDS011;44160;49.080;19.302;2022-08-19T13:52:25;17.95;;;6.72;;
58354;SDS011;44160;49.080;19.302;2022-08-19T13:54:51;13.52;;;6.70;;
58354;SDS011;44160;49.080;19.302;2022-08-19T13:57:17;8.75;;;4.50;;
58354;SDS011;44160;49.080;19.302;2022-08-19T13:59:43;8.02;;;4.80;;
58354;SDS011;44160;49.080;19.302;2022-08-19T14:02:09;8.93;;;4.03;;
58354;SDS011;44160;49.080;19.302;2022-08-19T14:04:36;6.45;;;4.15;;
58354;SDS011;44160;49.080;19.302;2022-08-19T14:07:02;4.88;;;3.78;;
58354;SDS011;44160;49.080;19.302;2022-08-19T14:09:28;10.23;;;4.05;;
58354;SDS011;44160;49.080;19.302;2022-08-19T14:11:54;8.20;;;4.05;;
58354;SDS011;44160;49.080;19.302;2022-08-19T14:14:21;8.00;;;5.07;;
58354;SDS011;44160;49.080;19.302;2022-08-19T14:16:47;6.80;;;4.22;;
58354;SDS011;44160;49.080;19.302;2022-08-19T14:19:14;10.02;;;4.53;;
58354;SDS011;44160;49.080;19.302;2022-08-19T14:21:40;7.47;;;3.70;;
58354;SDS011;44160;49.080;19.302;2022-08-19T14:24:06;7.28;;;3.97;;
58354;SDS011;44160;49.080;19.302;2022-08-19T14:26:33;8.38;;;3.92;;
58354;SDS011;44160;49.080;19.302;2022-08-19T14:28:59;10.57;;;4.30;;
58354;SDS011;44160;49.080;19.302;2022-08-19T14:31:26;7.10;;;3.67;;
58354;SDS011;44160;49.080;19.302;2022-08-19T14:33:52;4.65;;;3.38;;
58354;SDS011;44160;49.080;19.302;2022-08-19T14:36:19;6.25;;;3.47;;
58354;SDS011;44160;49.080;19.302;2022-08-19T14:38:46;10.55;;;4.10;;
58354;SDS011;44160;49.080;19.302;2022-08-19T14:41:17;8.80;;;4.10;;
58354;SDS011;44160;49.080;19.302;2022-08-19T14:43:47;14.82;;;4.20;;
58354;SDS011;44160;49.080;19.302;2022-08-19T14:46:15;10.65;;;3.60;;
58354;SDS011;44160;49.080;19.302;2022-08-19T14:48:41;7.95;;;4.05;;
58354;SDS011;44160;49.080;19.302;2022-08-19T14:51:08;5.60;;;4.00;;